sensor_id;sensor_type;location;lat;lon;timestamp;temperature;humidity
36416;DHT22;22447;44.530;18.620;2024-01-30T00:01:27;-2.30;99.90
36416;DHT22;22447;44.530;18.620;2024-01-30T00:03:53;-2.30;99.90
36416;DHT22;22447;44.530;18.620;2024-01-30T00:06:20;-2.20;99.90
36416;DHT22;22447;44.530;18.620;2024-01-30T00:08:49;-2.30;99.90
36416;DHT22;22447;44.530;18.620;2024-01-30T00:11:16;-2.30;99.90
36416;DHT22;22447;44.530;18.620;2024-01-30T00:13:42;-2.20;99.90
36416;DHT22;22447;44.530;18.620;2024-01-30T00:16:07;-2.20;99.90
36416;DHT22;22447;44.530;18.620;2024-01-30T00:18:35;-2.30;99.90
36416;DHT22;22447;44.530;18.620;2024-01-30T00:21:01;-2.30;99.90
36416;DHT22;22447;44.530;18.620;2024-01-30T00:23:27;-2.40;99.90
36416;DHT22;22447;44.530;18.620;2024-01-30T00:25:52;-2.40;99.90
36416;DHT22;22447;44.530;18.620;2024-01-30T00:28:18;-2.50;99.90
36416;DHT22;22447;44.530;18.620;2024-01-30T00:30:44;-2.40;99.90
36416;DHT22;22447;44.530;18.620;2024-01-30T00:33:10;-2.40;99.90
36416;DHT22;22447;44.530;18.620;2024-01-30T00:35:36;-2.60;99.90
36416;DHT22;22447;44.530;18.620;2024-01-30T00:38:02;-2.50;99.90
36416;DHT22;22447;44.530;18.620;2024-01-30T00:40:28;-2.60;99.90
36416;DHT22;22447;44.530;18.620;2024-01-30T00:42:53;-2.60;99.90
36416;DHT22;22447;44.530;18.620;2024-01-30T00:45:19;-2.60;99.90
36416;DHT22;22447;44.530;18.620;2024-01-30T00:47:45;-2.60;99.90
36416;DHT22;22447;44.530;18.620;2024-01-30T00:50:11;-2.60;99.90
36416;DHT22;22447;44.530;18.620;2024-01-30T00:52:37;-2.70;99.90
36416;DHT22;22447;44.530;18.620;2024-01-30T00:55:05;-2.70;99.90
36416;DHT22;22447;44.530;18.620;2024-01-30T00:57:31;-2.70;99.90
36416;DHT22;22447;44.530;18.620;2024-01-30T00:59:57;-2.70;99.90
36416;DHT22;22447;44.530;18.620;2024-01-30T01:02:23;-2.70;99.90
36416;DHT22;22447;44.530;18.620;2024-01-30T01:04:48;-2.80;99.90
36416;DHT22;22447;44.530;18.620;2024-01-30T01:07:14;-2.80;99.90
36416;DHT22;22447;44.530;18.620;2024-01-30T01:09:40;-2.80;99.90
36416;DHT22;22447;44.530;18.620;2024-01-30T01:12:06;-2.80;99.90
36416;DHT22;22447;44.530;18.620;2024-01-30T01:14:32;-2.90;99.90
36416;DHT22;22447;44.530;18.620;2024-01-30T01:16:58;-2.90;99.90
36416;DHT22;22447;44.530;18.620;2024-01-30T01:19:23;-2.90;99.90
36416;DHT22;22447;44.530;18.620;2024-01-30T01:21:49;-3.00;99.90
36416;DHT22;22447;44.530;18.620;2024-01-30T01:24:15;-3.10;99.90
36416;DHT22;22447;44.530;18.620;2024-01-30T01:26:41;-3.00;99.90
36416;DHT22;22447;44.530;18.620;2024-01-30T01:29:07;-2.90;99.90
36416;DHT22;22447;44.530;18.620;2024-01-30T01:31:38;-2.80;99.90
36416;DHT22;22447;44.530;18.620;2024-01-30T01:34:13;-2.80;99.90
36416;DHT22;22447;44.530;18.620;2024-01-30T01:36:39;-2.80;99.90
36416;DHT22;22447;44.530;18.620;2024-01-30T01:39:05;-2.90;99.90
36416;DHT22;22447;44.530;18.620;2024-01-30T01:41:32;-2.90;99.90
36416;DHT22;22447;44.530;18.620;2024-01-30T01:43:58;-2.80;99.90
36416;DHT22;22447;44.530;18.620;2024-01-30T01:46:27;-2.90;99.90
36416;DHT22;22447;44.530;18.620;2024-01-30T01:48:54;-2.90;99.90
36416;DHT22;22447;44.530;18.620;2024-01-30T01:51:21;-2.90;99.90
36416;DHT22;22447;44.530;18.620;2024-01-30T01:53:47;-2.90;99.90
36416;DHT22;22447;44.530;18.620;2024-01-30T01:56:13;-3.10;99.90
36416;DHT22;22447;44.530;18.620;2024-01-30T01:58:40;-3.10;99.90
36416;DHT22;22447;44.530;18.620;2024-01-30T02:01:07;-3.20;99.90
36416;DHT22;22447;44.530;18.620;2024-01-30T02:03:34;-3.30;99.90
36416;DHT22;22447;44.530;18.620;2024-01-30T02:06:01;-3.30;99.90
36416;DHT22;22447;44.530;18.620;2024-01-30T02:08:28;-3.30;99.90
36416;DHT22;22447;44.530;18.620;2024-01-30T02:10:54;-3.40;99.90
36416;DHT22;22447;44.530;18.620;2024-01-30T02:13:21;-3.50;99.90
36416;DHT22;22447;44.530;18.620;2024-01-30T02:15:51;-3.40;99.90
36416;DHT22;22447;44.530;18.620;2024-01-30T02:18:18;-3.40;99.90
36416;DHT22;22447;44.530;18.620;2024-01-30T02:20:44;-3.40;99.90
36416;DHT22;22447;44.530;18.620;2024-01-30T02:23:10;-3.30;99.90
36416;DHT22;22447;44.530;18.620;2024-01-30T02:25:39;-3.30;99.90
36416;DHT22;22447;44.530;18.620;2024-01-30T02:28:14;-3.40;99.90
36416;DHT22;22447;44.530;18.620;2024-01-30T02:30:43;-3.50;99.90
36416;DHT22;22447;44.530;18.620;2024-01-30T02:33:09;-3.60;99.90
36416;DHT22;22447;44.530;18.620;2024-01-30T02:35:34;-3.60;99.90
36416;DHT22;22447;44.530;18.620;2024-01-30T02:38:01;-3.60;99.90
36416;DHT22;22447;44.530;18.620;2024-01-30T02:40:26;-3.60;99.90
36416;DHT22;22447;44.530;18.620;2024-01-30T02:42:52;-3.60;99.90
36416;DHT22;22447;44.530;18.620;2024-01-30T02:45:18;-3.60;99.90
36416;DHT22;22447;44.530;18.620;2024-01-30T02:47:45;-3.60;99.90
36416;DHT22;22447;44.530;18.620;2024-01-30T02:50:11;-3.70;99.90
36416;DHT22;22447;44.530;18.620;2024-01-30T02:52:37;-3.70;99.90
36416;DHT22;22447;44.530;18.620;2024-01-30T02:55:03;-3.60;99.90
36416;DHT22;22447;44.530;18.620;2024-01-30T02:57:29;-3.50;99.90
36416;DHT22;22447;44.530;18.620;2024-01-30T02:59:55;-3.50;99.90
36416;DHT22;22447;44.530;18.620;2024-01-30T03:02:21;-3.50;99.90
36416;DHT22;22447;44.530;18.620;2024-01-30T03:04:47;-3.50;99.90
36416;DHT22;22447;44.530;18.620;2024-01-30T03:07:13;-3.60;99.90
36416;DHT22;22447;44.530;18.620;2024-01-30T03:09:39;-3.60;99.90
36416;DHT22;22447;44.530;18.620;2024-01-30T03:12:06;-3.70;99.90
36416;DHT22;22447;44.530;18.620;2024-01-30T03:14:32;-3.60;99.90
36416;DHT22;22447;44.530;18.620;2024-01-30T03:16:58;-3.70;99.90
36416;DHT22;22447;44.530;18.620;2024-01-30T03:19:24;-3.70;99.90
36416;DHT22;22447;44.530;18.620;2024-01-30T03:21:50;-3.70;99.90
36416;DHT22;22447;44.530;18.620;2024-01-30T03:24:17;-3.60;99.90
36416;DHT22;22447;44.530;18.620;2024-01-30T03:26:43;-3.60;99.90
36416;DHT22;22447;44.530;18.620;2024-01-30T03:29:09;-3.60;99.90
36416;DHT22;22447;44.530;18.620;2024-01-30T03:31:35;-3.70;99.90
36416;DHT22;22447;44.530;18.620;2024-01-30T03:34:01;-3.70;99.90
36416;DHT22;22447;44.530;18.620;2024-01-30T03:36:27;-3.70;99.90
36416;DHT22;22447;44.530;18.620;2024-01-30T03:38:54;-3.70;99.90
36416;DHT22;22447;44.530;18.620;2024-01-30T03:41:20;-3.80;99.90
36416;DHT22;22447;44.530;18.620;2024-01-30T03:43:46;-3.80;99.90
36416;DHT22;22447;44.530;18.620;2024-01-30T03:46:12;-3.80;99.90
36416;DHT22;22447;44.530;18.620;2024-01-30T03:48:38;-3.80;99.90
36416;DHT22;22447;44.530;18.620;2024-01-30T03:51:05;-3.80;99.90
36416;DHT22;22447;44.530;18.620;2024-01-30T03:53:31;-3.70;99.90
36416;DHT22;22447;44.530;18.620;2024-01-30T03:55:57;-3.80;99.90
36416;DHT22;22447;44.530;18.620;2024-01-30T03:58:23;-3.90;99.90
36416;DHT22;22447;44.530;18.620;2024-01-30T04:00:48;-3.90;99.90
36416;DHT22;22447;44.530;18.620;2024-01-30T04:03:15;-3.90;99.90
36416;DHT22;22447;44.530;18.620;2024-01-30T04:05:41;-4.00;99.90
36416;DHT22;22447;44.530;18.620;2024-01-30T04:08:07;-4.00;99.90
36416;DHT22;22447;44.530;18.620;2024-01-30T04:10:34;-3.80;99.90
36416;DHT22;22447;44.530;18.620;2024-01-30T04:13:00;-3.70;99.90
36416;DHT22;22447;44.530;18.620;2024-01-30T04:15:26;-3.60;99.90
36416;DHT22;22447;44.530;18.620;2024-01-30T04:17:53;-3.40;99.90
36416;DHT22;22447;44.530;18.620;2024-01-30T04:20:19;-3.50;99.90
36416;DHT22;22447;44.530;18.620;2024-01-30T04:22:45;-3.60;99.90
36416;DHT22;22447;44.530;18.620;2024-01-30T04:25:12;-3.70;99.90
36416;DHT22;22447;44.530;18.620;2024-01-30T04:27:38;-3.70;99.90
36416;DHT22;22447;44.530;18.620;2024-01-30T04:30:05;-3.80;99.90
36416;DHT22;22447;44.530;18.620;2024-01-30T04:32:31;-3.90;99.90
36416;DHT22;22447;44.530;18.620;2024-01-30T04:34:57;-3.90;99.90
36416;DHT22;22447;44.530;18.620;2024-01-30T04:37:24;-3.90;99.90
36416;DHT22;22447;44.530;18.620;2024-01-30T04:39:50;-4.00;99.90
36416;DHT22;22447;44.530;18.620;2024-01-30T04:42:16;-4.00;99.90
36416;DHT22;22447;44.530;18.620;2024-01-30T04:44:42;-4.00;99.90
36416;DHT22;22447;44.530;18.620;2024-01-30T04:47:08;-4.10;99.90
36416;DHT22;22447;44.530;18.620;2024-01-30T04:49:36;-4.10;99.90
36416;DHT22;22447;44.530;18.620;2024-01-30T04:52:02;-4.10;99.90
36416;DHT22;22447;44.530;18.620;2024-01-30T04:54:28;-4.10;99.90
36416;DHT22;22447;44.530;18.620;2024-01-30T04:56:54;-4.10;99.90
36416;DHT22;22447;44.530;18.620;2024-01-30T04:59:20;-4.20;99.90
36416;DHT22;22447;44.530;18.620;2024-01-30T05:01:46;-4.20;99.90
36416;DHT22;22447;44.530;18.620;2024-01-30T05:04:12;-4.20;99.90
36416;DHT22;22447;44.530;18.620;2024-01-30T05:06:38;-4.10;99.90
36416;DHT22;22447;44.530;18.620;2024-01-30T05:09:04;-4.10;99.90
36416;DHT22;22447;44.530;18.620;2024-01-30T05:11:37;-3.90;99.90
36416;DHT22;22447;44.530;18.620;2024-01-30T05:14:04;-3.90;99.90
36416;DHT22;22447;44.530;18.620;2024-01-30T05:16:30;-4.00;99.90
36416;DHT22;22447;44.530;18.620;2024-01-30T05:18:56;-4.00;99.90
36416;DHT22;22447;44.530;18.620;2024-01-30T05:21:22;-4.00;99.90
36416;DHT22;22447;44.530;18.620;2024-01-30T05:23:48;-4.00;99.90
36416;DHT22;22447;44.530;18.620;2024-01-30T05:26:14;-4.10;99.90
36416;DHT22;22447;44.530;18.620;2024-01-30T05:28:39;-4.10;99.90
36416;DHT22;22447;44.530;18.620;2024-01-30T05:31:05;-4.20;99.90
36416;DHT22;22447;44.530;18.620;2024-01-30T05:33:31;-4.30;99.90
36416;DHT22;22447;44.530;18.620;2024-01-30T05:35:57;-4.30;99.90
36416;DHT22;22447;44.530;18.620;2024-01-30T05:38:23;-4.40;99.90
36416;DHT22;22447;44.530;18.620;2024-01-30T05:40:49;-4.40;99.90
36416;DHT22;22447;44.530;18.620;2024-01-30T05:43:15;-4.40;99.90
36416;DHT22;22447;44.530;18.620;2024-01-30T05:45:41;-4.40;99.90
36416;DHT22;22447;44.530;18.620;2024-01-30T05:48:07;-4.50;99.90
36416;DHT22;22447;44.530;18.620;2024-01-30T05:50:33;-4.50;99.90
36416;DHT22;22447;44.530;18.620;2024-01-30T05:52:58;-4.50;99.90
36416;DHT22;22447;44.530;18.620;2024-01-30T05:55:24;-4.50;99.90
36416;DHT22;22447;44.530;18.620;2024-01-30T05:57:50;-4.50;99.90
36416;DHT22;22447;44.530;18.620;2024-01-30T06:00:18;-4.40;99.90
36416;DHT22;22447;44.530;18.620;2024-01-30T06:02:43;-4.50;99.90
36416;DHT22;22447;44.530;18.620;2024-01-30T06:05:09;-4.40;99.90
36416;DHT22;22447;44.530;18.620;2024-01-30T06:07:35;-4.50;99.90
36416;DHT22;22447;44.530;18.620;2024-01-30T06:10:01;-4.40;99.90
36416;DHT22;22447;44.530;18.620;2024-01-30T06:12:28;-4.40;99.90
36416;DHT22;22447;44.530;18.620;2024-01-30T06:14:54;-4.30;99.90
36416;DHT22;22447;44.530;18.620;2024-01-30T06:17:23;-4.20;99.90
36416;DHT22;22447;44.530;18.620;2024-01-30T06:19:49;-4.20;99.90
36416;DHT22;22447;44.530;18.620;2024-01-30T06:22:16;-4.30;99.90
36416;DHT22;22447;44.530;18.620;2024-01-30T06:24:42;-4.30;99.90
36416;DHT22;22447;44.530;18.620;2024-01-30T06:27:10;-4.40;99.90
36416;DHT22;22447;44.530;18.620;2024-01-30T06:29:36;-4.40;99.90
36416;DHT22;22447;44.530;18.620;2024-01-30T06:32:02;-4.50;99.90
36416;DHT22;22447;44.530;18.620;2024-01-30T06:34:28;-4.40;99.90
36416;DHT22;22447;44.530;18.620;2024-01-30T06:36:54;-4.40;99.90
36416;DHT22;22447;44.530;18.620;2024-01-30T06:39:20;-4.40;99.90
36416;DHT22;22447;44.530;18.620;2024-01-30T06:41:46;-4.40;99.90
36416;DHT22;22447;44.530;18.620;2024-01-30T06:44:12;-4.30;99.90
36416;DHT22;22447;44.530;18.620;2024-01-30T06:46:38;-3.90;99.90
36416;DHT22;22447;44.530;18.620;2024-01-30T06:49:04;-3.30;99.90
36416;DHT22;22447;44.530;18.620;2024-01-30T06:51:30;-2.50;99.90
36416;DHT22;22447;44.530;18.620;2024-01-30T06:53:56;-1.70;99.90
36416;DHT22;22447;44.530;18.620;2024-01-30T06:56:22;-1.10;99.90
36416;DHT22;22447;44.530;18.620;2024-01-30T06:58:49;-0.50;99.90
36416;DHT22;22447;44.530;18.620;2024-01-30T07:01:16;0.00;99.90
36416;DHT22;22447;44.530;18.620;2024-01-30T07:03:42;0.30;99.90
36416;DHT22;22447;44.530;18.620;2024-01-30T07:06:09;0.90;99.90
36416;DHT22;22447;44.530;18.620;2024-01-30T07:08:36;1.60;99.90
36416;DHT22;22447;44.530;18.620;2024-01-30T07:11:07;2.50;99.90
36416;DHT22;22447;44.530;18.620;2024-01-30T07:13:34;2.50;99.90
36416;DHT22;22447;44.530;18.620;2024-01-30T07:16:01;3.00;99.90
36416;DHT22;22447;44.530;18.620;2024-01-30T07:18:26;3.90;99.90
36416;DHT22;22447;44.530;18.620;2024-01-30T07:20:52;3.30;99.90
36416;DHT22;22447;44.530;18.620;2024-01-30T07:23:18;3.40;99.90
36416;DHT22;22447;44.530;18.620;2024-01-30T07:25:44;4.20;99.90
36416;DHT22;22447;44.530;18.620;2024-01-30T07:28:10;4.00;99.90
36416;DHT22;22447;44.530;18.620;2024-01-30T07:30:37;4.60;99.90
36416;DHT22;22447;44.530;18.620;2024-01-30T07:33:03;4.90;99.90
36416;DHT22;22447;44.530;18.620;2024-01-30T07:35:29;5.40;99.90
36416;DHT22;22447;44.530;18.620;2024-01-30T07:37:55;5.60;99.90
36416;DHT22;22447;44.530;18.620;2024-01-30T07:40:22;5.40;99.90
36416;DHT22;22447;44.530;18.620;2024-01-30T07:42:49;5.80;99.90
36416;DHT22;22447;44.530;18.620;2024-01-30T07:45:15;6.90;99.90
36416;DHT22;22447;44.530;18.620;2024-01-30T07:47:41;7.70;99.90
36416;DHT22;22447;44.530;18.620;2024-01-30T07:50:08;8.60;99.90
36416;DHT22;22447;44.530;18.620;2024-01-30T07:52:34;7.50;99.90
36416;DHT22;22447;44.530;18.620;2024-01-30T07:55:00;8.40;99.00
36416;DHT22;22447;44.530;18.620;2024-01-30T07:57:26;7.40;99.90
36416;DHT22;22447;44.530;18.620;2024-01-30T07:59:52;7.00;99.20
36416;DHT22;22447;44.530;18.620;2024-01-30T08:02:18;7.60;99.30
36416;DHT22;22447;44.530;18.620;2024-01-30T08:04:44;7.40;98.90
36416;DHT22;22447;44.530;18.620;2024-01-30T08:07:14;7.20;98.40
36416;DHT22;22447;44.530;18.620;2024-01-30T08:09:40;7.40;99.90
36416;DHT22;22447;44.530;18.620;2024-01-30T08:12:06;7.30;99.90
36416;DHT22;22447;44.530;18.620;2024-01-30T08:14:32;7.70;99.60
36416;DHT22;22447;44.530;18.620;2024-01-30T08:16:57;7.70;98.90
36416;DHT22;22447;44.530;18.620;2024-01-30T08:19:23;8.00;98.60
36416;DHT22;22447;44.530;18.620;2024-01-30T08:21:49;7.90;99.90
36416;DHT22;22447;44.530;18.620;2024-01-30T08:24:15;7.90;98.20
36416;DHT22;22447;44.530;18.620;2024-01-30T08:26:41;8.10;99.10
36416;DHT22;22447;44.530;18.620;2024-01-30T08:29:07;7.90;99.10
36416;DHT22;22447;44.530;18.620;2024-01-30T08:31:33;7.80;99.30
36416;DHT22;22447;44.530;18.620;2024-01-30T08:33:58;8.40;99.90
36416;DHT22;22447;44.530;18.620;2024-01-30T08:36:25;8.30;99.90
36416;DHT22;22447;44.530;18.620;2024-01-30T08:38:51;8.20;99.90
36416;DHT22;22447;44.530;18.620;2024-01-30T08:41:17;8.70;99.90
36416;DHT22;22447;44.530;18.620;2024-01-30T08:43:43;8.70;99.90
36416;DHT22;22447;44.530;18.620;2024-01-30T08:46:10;9.10;98.70
36416;DHT22;22447;44.530;18.620;2024-01-30T08:48:36;9.00;98.80
36416;DHT22;22447;44.530;18.620;2024-01-30T08:51:02;8.60;99.90
36416;DHT22;22447;44.530;18.620;2024-01-30T08:53:28;9.00;99.90
36416;DHT22;22447;44.530;18.620;2024-01-30T08:55:54;8.90;99.90
36416;DHT22;22447;44.530;18.620;2024-01-30T08:58:20;9.70;99.90
36416;DHT22;22447;44.530;18.620;2024-01-30T09:00:46;9.80;98.90
36416;DHT22;22447;44.530;18.620;2024-01-30T09:03:12;9.80;99.90
36416;DHT22;22447;44.530;18.620;2024-01-30T09:05:38;9.70;99.90
36416;DHT22;22447;44.530;18.620;2024-01-30T09:08:04;10.30;99.90
36416;DHT22;22447;44.530;18.620;2024-01-30T09:10:30;10.50;99.90
36416;DHT22;22447;44.530;18.620;2024-01-30T09:12:56;10.60;99.90
36416;DHT22;22447;44.530;18.620;2024-01-30T09:15:22;11.10;99.90
36416;DHT22;22447;44.530;18.620;2024-01-30T09:17:47;10.60;99.90
36416;DHT22;22447;44.530;18.620;2024-01-30T09:20:13;11.40;99.90
36416;DHT22;22447;44.530;18.620;2024-01-30T09:22:39;11.50;99.90
36416;DHT22;22447;44.530;18.620;2024-01-30T09:25:05;11.40;99.90
36416;DHT22;22447;44.530;18.620;2024-01-30T09:27:31;10.80;99.90
36416;DHT22;22447;44.530;18.620;2024-01-30T09:29:57;11.40;99.90
36416;DHT22;22447;44.530;18.620;2024-01-30T09:32:23;12.10;99.90
36416;DHT22;22447;44.530;18.620;2024-01-30T09:34:49;11.90;99.90
36416;DHT22;22447;44.530;18.620;2024-01-30T09:37:15;11.40;99.90
36416;DHT22;22447;44.530;18.620;2024-01-30T09:39:42;11.60;99.40
36416;DHT22;22447;44.530;18.620;2024-01-30T09:42:28;11.50;99.90
36416;DHT22;22447;44.530;18.620;2024-01-30T09:44:57;11.40;99.90
36416;DHT22;22447;44.530;18.620;2024-01-30T09:47:23;11.30;99.90
36416;DHT22;22447;44.530;18.620;2024-01-30T09:49:50;12.00;98.70
36416;DHT22;22447;44.530;18.620;2024-01-30T09:52:16;12.60;99.90
36416;DHT22;22447;44.530;18.620;2024-01-30T09:54:45;12.30;99.90
36416;DHT22;22447;44.530;18.620;2024-01-30T09:57:11;12.80;99.90
36416;DHT22;22447;44.530;18.620;2024-01-30T09:59:37;12.90;99.60
36416;DHT22;22447;44.530;18.620;2024-01-30T10:02:03;12.80;98.00
36416;DHT22;22447;44.530;18.620;2024-01-30T10:04:30;13.40;99.90
36416;DHT22;22447;44.530;18.620;2024-01-30T10:06:56;13.50;99.90
36416;DHT22;22447;44.530;18.620;2024-01-30T10:09:24;13.40;98.20
36416;DHT22;22447;44.530;18.620;2024-01-30T10:11:51;13.10;99.90
36416;DHT22;22447;44.530;18.620;2024-01-30T10:14:17;13.50;99.30
36416;DHT22;22447;44.530;18.620;2024-01-30T10:16:43;13.70;98.20
36416;DHT22;22447;44.530;18.620;2024-01-30T10:19:11;13.80;98.50
36416;DHT22;22447;44.530;18.620;2024-01-30T10:21:37;13.80;98.60
36416;DHT22;22447;44.530;18.620;2024-01-30T10:24:03;13.40;98.00
36416;DHT22;22447;44.530;18.620;2024-01-30T10:26:29;14.20;98.10
36416;DHT22;22447;44.530;18.620;2024-01-30T10:28:55;14.80;99.00
36416;DHT22;22447;44.530;18.620;2024-01-30T10:31:21;14.60;97.80
36416;DHT22;22447;44.530;18.620;2024-01-30T10:33:47;15.00;98.00
36416;DHT22;22447;44.530;18.620;2024-01-30T10:36:14;15.20;97.50
36416;DHT22;22447;44.530;18.620;2024-01-30T10:38:43;15.40;97.30
36416;DHT22;22447;44.530;18.620;2024-01-30T10:41:13;15.40;96.20
36416;DHT22;22447;44.530;18.620;2024-01-30T10:43:41;15.40;95.60
36416;DHT22;22447;44.530;18.620;2024-01-30T10:46:19;15.00;96.70
36416;DHT22;22447;44.530;18.620;2024-01-30T10:48:55;15.60;96.00
36416;DHT22;22447;44.530;18.620;2024-01-30T10:51:24;15.20;96.50
36416;DHT22;22447;44.530;18.620;2024-01-30T10:53:52;15.20;96.20
36416;DHT22;22447;44.530;18.620;2024-01-30T10:56:21;16.10;96.40
36416;DHT22;22447;44.530;18.620;2024-01-30T10:58:48;15.50;95.80
36416;DHT22;22447;44.530;18.620;2024-01-30T11:01:15;15.60;95.70
36416;DHT22;22447;44.530;18.620;2024-01-30T11:03:42;15.70;96.20
36416;DHT22;22447;44.530;18.620;2024-01-30T11:06:11;16.00;95.80
36416;DHT22;22447;44.530;18.620;2024-01-30T11:08:44;16.10;95.90
36416;DHT22;22447;44.530;18.620;2024-01-30T11:11:10;16.30;96.90
36416;DHT22;22447;44.530;18.620;2024-01-30T11:13:37;16.60;97.30
36416;DHT22;22447;44.530;18.620;2024-01-30T11:16:03;15.60;96.10
36416;DHT22;22447;44.530;18.620;2024-01-30T11:18:31;15.70;96.00
36416;DHT22;22447;44.530;18.620;2024-01-30T11:21:00;16.30;97.30
36416;DHT22;22447;44.530;18.620;2024-01-30T11:23:32;16.50;96.70
36416;DHT22;22447;44.530;18.620;2024-01-30T11:25:58;16.40;95.50
36416;DHT22;22447;44.530;18.620;2024-01-30T11:28:24;16.60;97.40
36416;DHT22;22447;44.530;18.620;2024-01-30T11:31:04;16.70;98.10
36416;DHT22;22447;44.530;18.620;2024-01-30T11:33:30;16.50;97.00
36416;DHT22;22447;44.530;18.620;2024-01-30T11:35:58;16.90;97.50
36416;DHT22;22447;44.530;18.620;2024-01-30T11:38:27;16.80;97.30
36416;DHT22;22447;44.530;18.620;2024-01-30T11:40:54;16.20;97.50
36416;DHT22;22447;44.530;18.620;2024-01-30T11:43:21;16.50;97.20
36416;DHT22;22447;44.530;18.620;2024-01-30T11:45:47;17.30;98.40
36416;DHT22;22447;44.530;18.620;2024-01-30T11:48:13;16.90;97.50
36416;DHT22;22447;44.530;18.620;2024-01-30T11:50:40;17.10;98.70
36416;DHT22;22447;44.530;18.620;2024-01-30T11:53:10;17.00;98.10
36416;DHT22;22447;44.530;18.620;2024-01-30T11:55:36;18.20;97.30
36416;DHT22;22447;44.530;18.620;2024-01-30T11:58:03;18.00;98.00
36416;DHT22;22447;44.530;18.620;2024-01-30T12:00:32;17.80;99.90
36416;DHT22;22447;44.530;18.620;2024-01-30T12:02:59;17.70;97.70
36416;DHT22;22447;44.530;18.620;2024-01-30T12:05:26;18.00;98.50
36416;DHT22;22447;44.530;18.620;2024-01-30T12:07:52;18.70;99.70
36416;DHT22;22447;44.530;18.620;2024-01-30T12:10:19;19.10;99.90
36416;DHT22;22447;44.530;18.620;2024-01-30T12:12:49;17.80;99.90
36416;DHT22;22447;44.530;18.620;2024-01-30T12:15:16;17.20;99.00
36416;DHT22;22447;44.530;18.620;2024-01-30T12:17:42;17.60;97.80
36416;DHT22;22447;44.530;18.620;2024-01-30T12:20:13;17.20;99.90
36416;DHT22;22447;44.530;18.620;2024-01-30T12:22:43;17.50;98.90
36416;DHT22;22447;44.530;18.620;2024-01-30T12:25:17;17.30;99.90
36416;DHT22;22447;44.530;18.620;2024-01-30T12:27:47;17.10;99.70
36416;DHT22;22447;44.530;18.620;2024-01-30T12:30:17;17.50;99.70
36416;DHT22;22447;44.530;18.620;2024-01-30T12:32:45;16.90;97.60
36416;DHT22;22447;44.530;18.620;2024-01-30T12:35:12;16.70;99.60
36416;DHT22;22447;44.530;18.620;2024-01-30T12:37:39;16.80;99.40
36416;DHT22;22447;44.530;18.620;2024-01-30T12:40:05;16.20;98.50
36416;DHT22;22447;44.530;18.620;2024-01-30T12:42:35;16.40;98.70
36416;DHT22;22447;44.530;18.620;2024-01-30T12:45:02;16.00;98.30
36416;DHT22;22447;44.530;18.620;2024-01-30T12:47:29;16.90;99.90
36416;DHT22;22447;44.530;18.620;2024-01-30T12:49:55;17.00;99.80
36416;DHT22;22447;44.530;18.620;2024-01-30T12:52:22;17.20;99.40
36416;DHT22;22447;44.530;18.620;2024-01-30T12:54:49;17.20;99.90
36416;DHT22;22447;44.530;18.620;2024-01-30T12:57:15;16.90;99.00
36416;DHT22;22447;44.530;18.620;2024-01-30T12:59:42;16.60;99.60
36416;DHT22;22447;44.530;18.620;2024-01-30T13:02:08;17.10;99.10
36416;DHT22;22447;44.530;18.620;2024-01-30T13:04:34;17.90;99.90
36416;DHT22;22447;44.530;18.620;2024-01-30T13:07:00;17.60;99.90
36416;DHT22;22447;44.530;18.620;2024-01-30T13:09:26;17.30;99.90
36416;DHT22;22447;44.530;18.620;2024-01-30T13:11:52;17.20;99.80
36416;DHT22;22447;44.530;18.620;2024-01-30T13:14:19;17.60;99.90
36416;DHT22;22447;44.530;18.620;2024-01-30T13:16:45;17.40;99.90
36416;DHT22;22447;44.530;18.620;2024-01-30T13:19:11;17.20;99.90
36416;DHT22;22447;44.530;18.620;2024-01-30T13:21:37;17.30;99.90
36416;DHT22;22447;44.530;18.620;2024-01-30T13:24:05;17.10;99.90
36416;DHT22;22447;44.530;18.620;2024-01-30T13:26:34;16.70;99.90
36416;DHT22;22447;44.530;18.620;2024-01-30T13:29:00;16.70;99.90
36416;DHT22;22447;44.530;18.620;2024-01-30T13:31:25;16.90;99.90
36416;DHT22;22447;44.530;18.620;2024-01-30T13:33:53;16.40;99.90
36416;DHT22;22447;44.530;18.620;2024-01-30T13:36:19;16.90;99.90
36416;DHT22;22447;44.530;18.620;2024-01-30T13:38:45;16.80;99.90
36416;DHT22;22447;44.530;18.620;2024-01-30T13:41:11;16.30;99.90
36416;DHT22;22447;44.530;18.620;2024-01-30T13:43:37;16.00;99.90
36416;DHT22;22447;44.530;18.620;2024-01-30T13:46:02;15.90;99.90
36416;DHT22;22447;44.530;18.620;2024-01-30T13:48:28;15.90;99.90
36416;DHT22;22447;44.530;18.620;2024-01-30T13:50:55;16.00;99.90
36416;DHT22;22447;44.530;18.620;2024-01-30T13:53:21;16.30;99.90
36416;DHT22;22447;44.530;18.620;2024-01-30T13:55:47;16.70;99.90
36416;DHT22;22447;44.530;18.620;2024-01-30T13:58:13;16.70;99.90
36416;DHT22;22447;44.530;18.620;2024-01-30T14:00:39;16.40;99.90
36416;DHT22;22447;44.530;18.620;2024-01-30T14:03:05;14.60;99.90
36416;DHT22;22447;44.530;18.620;2024-01-30T14:05:31;14.60;99.90
36416;DHT22;22447;44.530;18.620;2024-01-30T14:07:58;14.50;99.90
36416;DHT22;22447;44.530;18.620;2024-01-30T14:10:25;14.90;99.90
36416;DHT22;22447;44.530;18.620;2024-01-30T14:12:51;15.10;99.90
36416;DHT22;22447;44.530;18.620;2024-01-30T14:15:17;15.40;99.90
36416;DHT22;22447;44.530;18.620;2024-01-30T14:17:47;14.90;99.90
36416;DHT22;22447;44.530;18.620;2024-01-30T14:20:14;14.60;99.90
36416;DHT22;22447;44.530;18.620;2024-01-30T14:22:43;14.80;99.90
36416;DHT22;22447;44.530;18.620;2024-01-30T14:25:09;14.80;99.90
36416;DHT22;22447;44.530;18.620;2024-01-30T14:27:36;15.20;99.90
36416;DHT22;22447;44.530;18.620;2024-01-30T14:30:02;14.90;99.90
36416;DHT22;22447;44.530;18.620;2024-01-30T14:32:28;14.20;99.90
36416;DHT22;22447;44.530;18.620;2024-01-30T14:34:55;14.40;99.90
36416;DHT22;22447;44.530;18.620;2024-01-30T14:37:21;14.20;99.90
36416;DHT22;22447;44.530;18.620;2024-01-30T14:39:47;13.90;99.90
36416;DHT22;22447;44.530;18.620;2024-01-30T14:42:14;13.50;99.90
36416;DHT22;22447;44.530;18.620;2024-01-30T14:44:41;13.50;99.90
36416;DHT22;22447;44.530;18.620;2024-01-30T14:47:07;12.50;99.90
36416;DHT22;22447;44.530;18.620;2024-01-30T14:49:33;12.90;99.90
36416;DHT22;22447;44.530;18.620;2024-01-30T14:51:59;13.40;99.90
36416;DHT22;22447;44.530;18.620;2024-01-30T14:54:26;12.80;99.90
36416;DHT22;22447;44.530;18.620;2024-01-30T14:56:53;12.80;99.90
36416;DHT22;22447;44.530;18.620;2024-01-30T14:59:19;13.00;99.90
36416;DHT22;22447;44.530;18.620;2024-01-30T15:01:45;12.60;99.90
36416;DHT22;22447;44.530;18.620;2024-01-30T15:04:12;11.60;99.90
36416;DHT22;22447;44.530;18.620;2024-01-30T15:06:38;12.00;99.90
36416;DHT22;22447;44.530;18.620;2024-01-30T15:09:04;12.20;99.90
36416;DHT22;22447;44.530;18.620;2024-01-30T15:11:30;12.10;99.90
36416;DHT22;22447;44.530;18.620;2024-01-30T15:13:58;12.20;99.90